METAR Data
IDs: Format: Raw Decoded Include TAF

Data at: 1556 UTC 03 Dec 2021

KAST 031455Z AUTO 00000KT 10SM CLR 01/00 A3028 RMK AO2 SLP255 T00060000 56013
KAST 031355Z AUTO 12004KT 10SM CLR 01/01 A3029 RMK AO2 SLP255 T00110006
KAST 031255Z AUTO 14005KT 10SM CLR 02/01 A3031 RMK AO2 SLP264 T00170006
KAST 031155Z AUTO 14004KT 10SM CLR 01/01 A3032 RMK AO2 SLP268 T00110006 10061 20000 56004
KAST 031055Z AUTO 16003KT 9SM CLR 01/00 A3033 RMK AO2 VIS 2 RWY 08 SLP269 T00110000
KAST 030955Z AUTO 17003KT 10SM CLR 01/01 A3032 RMK AO2 SLP267 T00110006
KAST 030855Z AUTO 00000KT 10SM CLR 02/01 A3033 RMK AO2 SLP272 T00170011 58003
KAST 030838Z AUTO 00000KT 9SM CLR 02/01 A3033 RMK AO2 T00170011
KAST 030831Z AUTO 00000KT 2 1/2SM BR CLR 02/01 A3033 RMK AO2 T00220011
KAST 030755Z AUTO 13003KT 10SM CLR 02/01 A3034 RMK AO2 SLP275 T00220011 401060022
KAST 030655Z AUTO 00000KT 10SM BKN033 03/01 A3036 RMK AO2 SLP279 T00330011
KAST 030555Z AUTO 33007KT 10SM CLR 06/01 A3035 RMK AO2 SLP275 T00610006 10089 20050 58004
KAST 030455Z AUTO 01007KT 10SM CLR 06/01 A3036 RMK AO2 SLP280 T00610011
KAST 030355Z AUTO VRB03KT 10SM SCT039 BKN047 07/03 A3037 RMK AO2 SLP282 T00670028
KAST 030255Z AUTO 36005KT 10SM SCT032 OVC047 07/02 A3036 RMK AO2 SLP280 T00670022 50002
KAST 030155Z AUTO 33008KT 10SM CLR 07/02 A3036 RMK AO2 SLP281 T00720022
KAST 030055Z AUTO 01007KT 10SM BKN045 08/03 A3035 RMK AO2 SLP277 T00780028
KAST 022355Z AUTO 01008KT 10SM OVC046 09/03 A3035 RMK AO2 SLP278 T00890028 10106 20083 53004
KAST 022255Z AUTO 02006KT 10SM OVC048 08/04 A3034 RMK AO2 SLP275 T00830044
KAST 022155Z AUTO 34010KT 10SM FEW027 BKN037 OVC045 09/04 A3034 RMK AO2 SLP274 T00890039
KAST 022055Z AUTO 34012KT 10SM SCT048 09/05 A3034 RMK AO2 SLP274 T00890050 51005
KAST 021955Z AUTO 33009KT 10SM FEW027 SCT039 BKN048 10/05 A3034 RMK AO2 SLP273 T01000050
KAST 021855Z AUTO 33004KT 10SM SCT034 SCT041 BKN050 10/06 A3034 RMK AO2 SLP272 T01000056
KAST 021755Z AUTO 34005KT 9SM BKN050 10/06 A3033 RMK AO2 SLP269 T01000061 10100 20078 51018
KAST 021655Z AUTO 33008KT 9SM BKN050 09/06 A3031 RMK AO2 SLP263 T00890061
KAST 021555Z AUTO 34007KT 9SM SCT028 OVC050 09/06 A3029 RMK AO2 SLP258 T00890061
KAST 021455Z AUTO 33007KT 9SM FEW026 BKN035 OVC046 09/07 A3027 RMK AO2 SLP251 T00940072 53008
KAST 021355Z AUTO 33007KT 8SM FEW016 SCT021 OVC027 09/08 A3025 RMK AO2 SLP241 T00940078
KAST 021340Z AUTO 30003KT 8SM SCT016 BKN026 OVC050 08/08 A3025 RMK AO2 T00830078
KAST 021255Z AUTO 34006KT 8SM FEW015 BKN031 OVC049 09/08 A3023 RMK AO2 SLP237 T00940083
KAST 021241Z AUTO 31008KT 7SM FEW016 BKN036 OVC048 09/08 A3025 RMK AO2 T00890078
KAST 021233Z AUTO 29009KT 5SM BR FEW015 BKN029 OVC047 08/07 A3025 RMK AO2 T00830072
KAST 021223Z AUTO 24003KT 5SM BR FEW020 SCT029 OVC047 08/07 A3024 RMK AO2 T00830072
KAST 021155Z AUTO 23003KT 5SM BR FEW017 BKN023 OVC042 09/08 A3025 RMK AO2 SLP243 70010 T00890083 10111 20078 53006
KAST 021141Z AUTO 24003KT 4SM BR BKN027 OVC041 09/08 A3025 RMK AO2 T00890083
KAST 021126Z AUTO 25004KT 5SM BR BKN031 BKN040 08/08 A3025 RMK AO2 T00830078
KAST 021055Z AUTO 26004KT 5SM BR BKN028 08/08 A3024 RMK AO2 SLP240 T00830078
KAST 020955Z AUTO 24003KT 6SM BR OVC023 09/09 A3022 RMK AO2 SLP233 T00940089
KAST 020931Z AUTO 26004KT 5SM BR BKN023 BKN055 OVC075 09/08 A3023 RMK AO2 T00940083
KAST 020855Z AUTO 26004KT 5SM BR FEW025 OVC055 10/09 A3023 RMK AO2 SLP236 T01000094 50010
KAST 020818Z AUTO 23003KT 9SM FEW019 FEW024 OVC060 10/09 A3023 RMK AO2 T01000094
KAST 020755Z AUTO 28004KT 10SM FEW007 BKN017 OVC022 10/09 A3023 RMK AO2 SLP237 T01000094 401220067
KAST 020749Z AUTO 29004KT 9SM SCT007 OVC015 11/09 A3023 RMK AO2
KAST 020655Z AUTO 30005KT 9SM OVC008 11/10 A3021 RMK AO2 SLP231 T01110100
KAST 020555Z AUTO 27004KT 3SM BR OVC006 11/11 A3020 RMK AO2 RAB0459E53 SLP225 P0005 60010 T01110111 10111 20111 53007
KAST 020532Z AUTO 26005KT 2 1/2SM -RA BR SCT004 OVC009 11/11 A3019 RMK AO2 RAB0459 P0003 T01110106
KAST 020524Z AUTO 26004KT 3SM -RA BR FEW004 OVC009 11/11 A3019 RMK AO2 RAB0459 P0003 T01110106
KAST 020505Z AUTO 26005KT 2SM -RA BR SCT004 OVC008 11/11 A3019 RMK AO2 RAB0459 P0001 T01110106
KAST 020455Z AUTO 25005KT 2SM BR SCT004 OVC010 11/11 A3019 RMK AO2 RAE31 SLP221 P0004 T01110111
KAST 020441Z AUTO 25004KT 2SM BR BKN004 OVC011 11/11 A3018 RMK AO2 RAE31 P0004 T01110106
KAST 020402Z AUTO 23005KT 2SM -RA BR OVC005 11/11 A3018 RMK AO2 P0001 T01110106